Airfield :
LOGIN :

Register | Disclaimer

   EN    FR    IT 

 










Legend :    VFR   Marginal VFR   IFR   Intensive IFR   Very Intensive IFR
Visi :
Ceiling :
>= 8 km
>= 3000ft
5 to 8 km
1000 to 3000 ft
1500m to 5 km
500 to 1000 ft
800 to 1500m
200 to 500 ft
< 800m
< 200 ft
Symbols :   Thunderstorms  Fog  Heavy snow  Heavy precipitations  Wind > 20 kt
SIGMETs :     Misc.  Thunderstorms  Icing  Turbulence  Mountain Waves  Volcanic Ashes






- Airport Elevation : 297 ft
- IATA code : UIP


LFRQ - Quimper Pluguffan

CURRENT METAR :
  • 291000Z AUTO 23016KT 9999 BKN011 OVC021 15/13 Q1020 TEMPO BKN008 BECMG 23015G25KT

EXPIRED METARs :
  • 290930Z AUTO 24016KT 9999 BKN009 BKN015 OVC022 15/13 Q1020 BECMG 23015G25KT
  • 290900Z AUTO 24012KT 9999 BKN008 OVC013 14/13 Q1020 BECMG 23015G25KT
  • 290830Z AUTO 23011KT 9999 OVC009 14/13 Q1019 BECMG 23015G25KT
  • 290800Z AUTO 24012KT 9999 OVC008 14/13 Q1019 BECMG 23015G25KT
  • 290730Z AUTO 23010KT 9999 OVC008 14/13 Q1019 BECMG 23015G25KT
  • 290700Z AUTO 23009KT 9999 -RA OVC008 14/13 Q1019 BECMG 23015G25KT

TAF TAF LFRQ
Valid from the 29 at 06:00 until the 30 at 06:00 UTC


290500Z 2906/3006 23008KT 9999 BKN015 BKN070
BECMG 2906/2909 23015G25KT
TEMPO 2906/2912 BKN008
BECMG 2912/2915 BKN006
TEMPO 3000/3006 3000 RA BKN004



MET'MAP, your aeronautical weather chart ! - Copyright ORBIFLY December 2007 - Disclaimer

ORBIFLY MET'MAP TEAM :

Programming & Development : Alexandra Zaïnal
Concept & original design : Baudouin d'Aumeries
Assistance for programming : Marc-Olivier Méhu
Technical & hardware support : Manuel Goepfert

Contact : metmap@orbifly.com




SOURCES & CREDITS :

   NOAA